Aéroport Valenciennes-Denain

LFAV · North, Hauts-de-France, 法国

罗盘
风向 的 Valenciennes-Denain Airport 11/29
风: 2 kt, 1 beaufort

1 kt

2 kt
改变
0 1.000 2.000 3.000 4.000 5.000
BKN 500 ft
OVC 4.300 ft
METAR LFQQ 300700Z AUTO VRB02KT 6000 BKN005 OVC043 05/05 Q1024 NOSIG

METAR Valenciennes-Denain Airport - LFAV

Valenciennes-Denain Airport是,法国中的中型机场。 该机场有2条跑道: 11/29 和 6/24. 该领域的国际民航组织标志是LFAV.

这份报告是针对2022年11月30日 08:00, 当地时间在Lille-Lesquin Airport进行的。

机场观察

可变方向的风很小或没有风。

可见度为6 km。

有碎云在500 ft的高度 和 乌云密布在4.300 ft的高度。 破损或更高的上限为500 ft。

温度为5 °C,阵风为3 °C。 露点为5 °C,相对湿度为100%。 海平面上的气压为1024 hPa (QNH)。

白天

今天,太阳从08:22升起,在16:46降落。 这适用于Valenciennes-Denain Airport,世界夏令时可能有所不同。 当地时间与世界标准时间之间的时差为+1 小时。 当前,没有夏令时有效。

公司介绍

在这个机场,你可以找到飞行俱乐部。 这个机场上的公司有Takeoff Aviation Club & School 和 Aéroclub Valenciennes Hainaut。

体会

到Vliegles.nl去找飞行课程,跳伞和其他飞行体验。 浏览页面,了解Valenciennes-Denain Airport附近所有可用的活动。 你也可以使用搜索功能来寻找你所在地附近的特定飞行课程、跳伞或其他飞行体验。

跑道

Id 标题 侧风 逆风 侧风 %
11/29 110°-290° 2 kt 94 %
6/24 062°-242° 2 kt 88 %

逆风成分最大的方向会被突出显示,并用于横风计算。 这并不一定意味着这个方向在使用。

乌云

500 ft BKN 碎云
4.300 ft OVC 乌云密布

温度 & 天气

温度 5 °C
露点 5 °C
相对湿度 100%
风寒 3 °C
Kp-index 2 (0-9)

白天

日出
08:25 (4m)
中午
12:36
日落
16:47

小工具

你想在你的网站上有一个关于Valenciennes-Denain Airport的当前航空天气(METAR)的小部件吗?

显示HTML代码

我们和第三方通过cookies跟踪您在我们网站上的互联网行为。如果你继续,我们认为你同意我们的饼干政策